Time;durP1;ratioP1;P1;durP2;ratioP2;P2;SDS_P1;SDS_P2;PMS_P1;PMS_P2;Temp;Humidity;BMP_temperature;BMP_pressure;BME280_temperature;BME280_humidity;BME280_pressure;Samples;Min_cycle;Max_cycle;Signal;HPM_P1;HPM_P2
2023/01/18 00:00:28;;;;;;;22.10;10.07;;;-0.60;99.90;;;;;;5100695;28;20354;-61
2023/01/18 00:02:54;;;;;;;16.92;9.55;;;-0.60;99.90;;;;;;5100796;28;20421;-61
2023/01/18 00:05:21;;;;;;;16.67;9.82;;;-0.60;99.90;;;;;;5089125;28;20028;-61
2023/01/18 00:07:47;;;;;;;15.65;9.70;;;-0.60;99.90;;;;;;5102201;28;20404;-61
2023/01/18 00:10:13;;;;;;;18.67;11.43;;;-0.60;99.90;;;;;;5109396;27;20026;-61
2023/01/18 00:12:39;;;;;;;17.58;10.25;;;-0.60;99.90;;;;;;5102265;28;20449;-61
2023/01/18 00:15:05;;;;;;;17.83;10.25;;;-0.60;99.90;;;;;;5107173;28;20529;-61
2023/01/18 00:17:30;;;;;;;18.02;9.85;;;-0.60;99.90;;;;;;5107011;28;20016;-61
2023/01/18 00:19:56;;;;;;;19.48;10.18;;;-0.60;99.90;;;;;;5122773;27;20042;-60
2023/01/18 00:22:21;;;;;;;19.95;11.27;;;-0.60;99.90;;;;;;5101101;28;20028;-61
2023/01/18 00:24:47;;;;;;;18.45;9.38;;;-0.60;99.90;;;;;;5106959;28;20125;-61
2023/01/18 00:27:13;;;;;;;22.05;9.60;;;-0.60;99.90;;;;;;5103578;28;20030;-61
2023/01/18 00:29:38;;;;;;;16.73;9.93;;;-0.60;99.90;;;;;;5108391;28;20028;-61
2023/01/18 00:32:04;;;;;;;17.70;9.75;;;-0.60;99.90;;;;;;5102972;28;20023;-61
2023/01/18 00:34:30;;;;;;;16.05;8.77;;;-0.60;99.90;;;;;;5102902;28;20020;-61
2023/01/18 00:36:55;;;;;;;15.85;8.15;;;-0.60;99.90;;;;;;5100099;28;20521;-61
2023/01/18 00:39:21;;;;;;;15.43;8.75;;;-0.60;99.90;;;;;;5108213;28;20472;-61
2023/01/18 00:44:30;;;;;;;17.75;10.50;;;-0.50;99.90;;;;;;5107941;28;20430;-61
2023/01/18 00:46:56;;;;;;;17.58;9.77;;;-0.50;99.90;;;;;;5101615;28;20396;-61
2023/01/18 00:49:22;;;;;;;15.55;9.43;;;-0.50;99.90;;;;;;5100367;28;20053;-60
2023/01/18 00:51:50;;;;;;;17.48;9.43;;;-0.50;99.90;;;;;;5105751;28;20023;-61
2023/01/18 00:54:16;;;;;;;17.38;8.77;;;-0.50;99.90;;;;;;5104546;28;20015;-61
2023/01/18 00:56:42;;;;;;;12.82;8.23;;;-0.50;99.90;;;;;;5079248;28;20031;-61
2023/01/18 00:59:08;;;;;;;11.98;7.13;;;-0.50;99.90;;;;;;5105234;28;20028;-61
2023/01/18 01:01:33;;;;;;;12.32;6.80;;;-0.50;99.90;;;;;;5099422;28;20020;-61
2023/01/18 01:06:43;;;;;;;12.90;6.53;;;-0.40;99.90;;;;;;5096593;28;20034;-61
2023/01/18 01:09:15;;;;;;;14.77;7.35;;;-0.40;99.90;;;;;;5103654;28;20028;-61
2023/01/18 01:12:31;;;;;;;10.50;6.35;;;-0.40;99.90;;;;;;5056677;28;20548;-61
2023/01/18 01:28:06;;;;;;;7.97;5.28;;;-0.40;99.90;;;;;;5061876;28;20028;-61
2023/01/18 01:30:32;;;;;;;10.10;5.35;;;-0.30;99.90;;;;;;5057606;28;20021;-61
2023/01/18 01:32:57;;;;;;;7.80;4.68;;;-0.40;99.90;;;;;;5076679;28;20068;-61
2023/01/18 01:35:23;;;;;;;9.00;5.68;;;-0.30;99.90;;;;;;5071690;28;20044;-61
2023/01/18 01:37:48;;;;;;;11.40;5.75;;;-0.30;99.90;;;;;;5049875;28;20096;-61
2023/01/18 01:40:14;;;;;;;8.90;5.75;;;-0.30;99.90;;;;;;5051660;28;20028;-61
2023/01/18 01:42:39;;;;;;;7.85;5.20;;;-0.30;99.90;;;;;;5051953;28;20021;-61
2023/01/18 01:45:05;;;;;;;10.77;5.43;;;-0.30;99.90;;;;;;5055808;28;20037;-61
2023/01/18 01:47:36;;;;;;;10.40;5.82;;;-0.30;99.90;;;;;;5049989;28;20017;-61
2023/01/18 01:50:12;;;;;;;9.57;6.07;;;-0.30;99.90;;;;;;5051185;28;20025;-61
2023/01/18 01:52:40;;;;;;;12.38;7.03;;;-0.30;99.90;;;;;;5052341;28;20548;-61
2023/01/18 01:55:10;;;;;;;11.55;6.75;;;-0.40;99.90;;;;;;5050288;28;20024;-61
2023/01/18 01:57:41;;;;;;;12.93;7.13;;;-0.40;99.90;;;;;;5052122;28;20082;-61
2023/01/18 02:00:18;;;;;;;13.95;7.90;;;-0.40;99.90;;;;;;5053122;28;20255;-61
2023/01/18 02:02:47;;;;;;;17.05;8.68;;;-0.50;99.90;;;;;;5049981;28;20021;-61
2023/01/18 02:05:16;;;;;;;12.93;7.22;;;-0.50;99.90;;;;;;5055418;28;20025;-61
2023/01/18 02:07:42;;;;;;;10.40;6.32;;;-0.50;99.90;;;;;;5057560;28;20032;-61
2023/01/18 02:10:09;;;;;;;11.25;6.70;;;-0.40;99.90;;;;;;5050733;28;20051;-61
2023/01/18 02:12:37;;;;;;;16.92;7.10;;;-0.50;99.90;;;;;;5049129;28;20084;-61
2023/01/18 02:15:03;;;;;;;11.07;6.50;;;-0.40;99.90;;;;;;5049923;28;20017;-61
2023/01/18 02:18:18;;;;;;;11.27;6.47;;;-0.40;99.90;;;;;;5050121;28;20513;-61
2023/01/18 02:21:16;;;;;;;10.85;6.28;;;-0.40;99.90;;;;;;5061660;28;20025;-61
2023/01/18 02:23:54;;;;;;;12.88;6.38;;;-0.40;99.90;;;;;;5052396;28;20032;-61
2023/01/18 02:26:43;;;;;;;11.38;6.10;;;-0.40;99.90;;;;;;5052230;28;20021;-61
2023/01/18 02:29:20;;;;;;;8.93;5.53;;;-0.40;99.90;;;;;;5052313;28;20123;-61
2023/01/18 02:32:03;;;;;;;10.52;5.78;;;-0.30;99.90;;;;;;5052867;28;20032;-61
2023/01/18 02:34:41;;;;;;;8.98;5.68;;;-0.30;99.90;;;;;;5047331;28;20025;-61
2023/01/18 02:37:59;;;;;;;11.43;6.40;;;-0.30;99.90;;;;;;5049586;28;20024;-61
2023/01/18 02:40:50;;;;;;;10.25;5.93;;;-0.30;99.90;;;;;;5032386;28;20033;-61
2023/01/18 02:48:50;;;;;;;9.40;5.40;;;-0.30;99.90;;;;;;5047039;28;20023;-61
2023/01/18 02:51:15;;;;;;;9.50;5.82;;;-0.30;99.90;;;;;;5049931;28;20103;-61
2023/01/18 02:53:43;;;;;;;9.27;5.57;;;-0.30;99.90;;;;;;5045502;28;20036;-61
2023/01/18 02:56:41;;;;;;;12.30;6.30;;;-0.30;99.90;;;;;;5053152;28;20021;-61
2023/01/18 02:59:09;;;;;;;14.93;6.07;;;-0.30;99.90;;;;;;5064602;28;20028;-61
2023/01/18 03:01:47;;;;;;;12.65;6.18;;;-0.30;99.90;;;;;;5052309;28;20440;-61
2023/01/18 03:04:27;;;;;;;10.00;5.10;;;-0.30;99.90;;;;;;5055512;28;20032;-61
2023/01/18 03:06:56;;;;;;;;;;;-0.30;99.90;;;;;;5050271;28;20439;-61
2023/01/18 03:09:25;;;;;;;9.75;5.80;;;-0.40;99.90;;;;;;5049852;28;19962;-61
2023/01/18 03:12:20;;;;;;;9.85;5.93;;;-0.40;99.90;;;;;;5072567;28;20093;-61
2023/01/18 03:15:12;;;;;;;9.98;6.40;;;-0.40;99.90;;;;;;5087414;28;20052;-61
2023/01/18 03:17:44;;;;;;;10.77;6.38;;;-0.50;99.90;;;;;;5090415;28;20024;-61
2023/01/18 03:20:14;;;;;;;10.45;5.90;;;-0.50;99.90;;;;;;5090865;28;20035;-61
2023/01/18 03:25:41;;;;;;;12.93;6.05;;;-0.60;99.90;;;;;;5090361;28;20073;-61
2023/01/18 03:34:43;;;;;;;11.50;7.18;;;-0.60;99.90;;;;;;5090300;28;20034;-61
2023/01/18 03:37:42;;;;;;;14.48;8.30;;;-0.70;99.90;;;;;;5113362;27;20020;-61
2023/01/18 03:40:16;;;;;;;14.60;8.75;;;-0.70;99.90;;;;;;5054921;28;20047;-61
2023/01/18 03:42:52;;;;;;;13.38;9.00;;;-0.80;99.90;;;;;;5076121;28;20445;-61
2023/01/18 03:45:41;;;;;;;20.02;10.10;;;-0.90;99.90;;;;;;5092975;28;20028;-61
2023/01/18 03:48:08;;;;;;;17.60;8.55;;;-0.90;99.90;;;;;;5071741;28;20031;-61
2023/01/18 03:50:52;;;;;;;14.48;8.60;;;-0.90;99.90;;;;;;5093056;28;20033;-60
2023/01/18 03:53:31;;;;;;;15.27;9.10;;;-0.90;99.90;;;;;;5102268;27;20020;-61
2023/01/18 03:56:10;;;;;;;16.45;8.95;;;-0.90;99.90;;;;;;5099565;27;20021;-61
2023/01/18 03:58:35;;;;;;;14.02;8.32;;;-1.00;99.90;;;;;;5089988;28;20031;-61
2023/01/18 04:01:02;;;;;;;17.55;8.45;;;-1.00;99.90;;;;;;5097736;28;20020;-61
2023/01/18 04:03:32;;;;;;;12.90;7.95;;;-1.00;99.90;;;;;;5098991;28;20020;-61
2023/01/18 04:05:59;;;;;;;;;;;-1.00;99.90;;;;;;5091728;28;20032;-61
2023/01/18 04:08:24;;;;;;;12.65;8.30;;;-1.00;99.90;;;;;;5089363;28;19914;-61
2023/01/18 04:10:50;;;;;;;16.02;8.93;;;-1.00;99.90;;;;;;5091905;28;20036;-61
2023/01/18 04:13:15;;;;;;;13.15;7.32;;;-1.00;99.90;;;;;;5074140;28;20034;-61
2023/01/18 04:15:41;;;;;;;14.40;7.95;;;-1.00;99.90;;;;;;5080304;28;20020;-61
2023/01/18 04:18:06;;;;;;;12.55;6.68;;;-0.90;99.90;;;;;;5092670;28;20091;-61
2023/01/18 04:20:32;;;;;;;11.27;7.03;;;-0.90;99.90;;;;;;5081505;28;20089;-61
2023/01/18 04:22:57;;;;;;;13.55;7.63;;;-0.90;99.90;;;;;;5091798;28;20106;-61
2023/01/18 04:25:23;;;;;;;14.60;8.20;;;-0.90;99.90;;;;;;5088444;28;20485;-61
2023/01/18 04:27:48;;;;;;;14.60;8.25;;;-0.90;99.90;;;;;;5095166;28;20016;-61
2023/01/18 04:30:14;;;;;;;13.52;8.70;;;-0.90;99.90;;;;;;5089430;28;20451;-61
2023/01/18 04:32:41;;;;;;;11.02;6.63;;;-0.90;99.90;;;;;;5089093;28;20031;-61
2023/01/18 04:35:08;;;;;;;12.07;7.18;;;-0.90;99.90;;;;;;5091180;28;20016;-61
2023/01/18 04:37:36;;;;;;;12.10;6.85;;;-0.90;99.90;;;;;;5091592;28;20438;-61
2023/01/18 04:40:03;;;;;;;16.30;7.80;;;-0.80;99.90;;;;;;5093664;28;20032;-61
2023/01/18 04:42:29;;;;;;;9.75;6.07;;;-0.80;99.90;;;;;;5088919;28;20019;-61
2023/01/18 04:44:55;;;;;;;11.38;6.57;;;-0.80;99.90;;;;;;5070684;28;20032;-61
2023/01/18 04:47:20;;;;;;;10.68;6.20;;;-0.80;99.90;;;;;;5091554;28;20026;-61
2023/01/18 04:49:46;;;;;;;13.50;8.88;;;-0.80;99.90;;;;;;5081166;28;20030;-61
2023/01/18 04:52:11;;;;;;;14.75;10.18;;;-0.90;99.90;;;;;;5089937;28;20067;-61
2023/01/18 04:54:37;;;;;;;16.92;9.05;;;-0.90;99.90;;;;;;5090114;28;20032;-61
2023/01/18 04:57:02;;;;;;;19.60;9.75;;;-1.00;99.90;;;;;;5088945;28;20028;-61
2023/01/18 04:59:28;;;;;;;15.75;8.60;;;-1.10;99.90;;;;;;5099248;28;20031;-61
2023/01/18 05:01:54;;;;;;;13.07;8.05;;;-1.10;99.90;;;;;;5091427;28;20021;-61
2023/01/18 05:04:19;;;;;;;11.80;6.88;;;-1.20;99.90;;;;;;5091324;28;20106;-61
2023/01/18 05:06:48;;;;;;;15.02;8.30;;;-1.10;99.90;;;;;;5090936;28;20020;-61
2023/01/18 05:09:13;;;;;;;11.27;6.80;;;-1.10;99.90;;;;;;5091196;28;20016;-61
2023/01/18 05:11:39;;;;;;;12.50;7.35;;;-1.00;99.90;;;;;;5088880;28;20116;-61
2023/01/18 05:14:04;;;;;;;12.60;7.93;;;-1.00;99.90;;;;;;5081148;28;20031;-61
2023/01/18 05:16:30;;;;;;;16.13;9.48;;;-1.00;99.90;;;;;;5093287;28;20087;-61
2023/01/18 05:18:56;;;;;;;16.55;9.88;;;-1.10;99.90;;;;;;5088282;28;20028;-61
2023/01/18 05:21:21;;;;;;;14.63;9.38;;;-1.20;99.90;;;;;;5088313;28;20020;-61
2023/01/18 05:23:47;;;;;;;14.18;8.43;;;-1.20;99.90;;;;;;5096566;28;20027;-61
2023/01/18 05:26:21;;;;;;;12.68;7.72;;;-1.20;99.90;;;;;;5093050;28;20563;-61
2023/01/18 05:28:47;;;;;;;11.98;7.93;;;-1.20;99.90;;;;;;5090677;28;20404;-61
2023/01/18 05:31:14;;;;;;;14.40;9.05;;;-1.20;99.90;;;;;;5092873;28;20098;-61
2023/01/18 05:33:40;;;;;;;13.57;8.60;;;-1.20;99.90;;;;;;5090980;28;20115;-61
2023/01/18 05:36:06;;;;;;;18.40;9.60;;;-1.20;99.90;;;;;;5073562;28;20111;-61
2023/01/18 05:38:32;;;;;;;17.23;9.32;;;-1.30;99.90;;;;;;5087813;28;20019;-61
2023/01/18 05:40:58;;;;;;;15.35;9.63;;;-1.30;99.90;;;;;;5093659;28;20094;-61
2023/01/18 05:43:25;;;;;;;15.40;9.27;;;-1.30;99.90;;;;;;5091995;28;20034;-61
2023/01/18 05:45:51;;;;;;;15.38;9.25;;;-1.30;99.90;;;;;;5092973;28;20506;-61
2023/01/18 05:48:17;;;;;;;21.42;9.80;;;-1.30;99.90;;;;;;5090399;28;20024;-61
2023/01/18 05:50:45;;;;;;;15.77;9.45;;;-1.30;99.90;;;;;;5097504;28;20031;-61
2023/01/18 05:53:12;;;;;;;16.95;8.32;;;-1.40;99.90;;;;;;5093178;28;20111;-61
2023/01/18 05:55:38;;;;;;;12.02;7.90;;;-1.40;99.90;;;;;;5087189;28;20099;-61
2023/01/18 05:58:03;;;;;;;16.98;8.40;;;-1.40;99.90;;;;;;5089715;28;20098;-61
2023/01/18 06:00:29;;;;;;;15.82;8.00;;;-1.40;99.90;;;;;;5087582;28;20099;-61
2023/01/18 06:02:55;;;;;;;15.48;8.10;;;-1.40;99.90;;;;;;5093268;28;20031;-62
2023/01/18 06:05:22;;;;;;;13.73;7.65;;;-1.40;99.90;;;;;;5091524;28;20024;-61
2023/01/18 06:07:47;;;;;;;13.75;7.50;;;-1.30;99.90;;;;;;5088093;28;20082;-61
2023/01/18 06:10:13;;;;;;;12.85;7.75;;;-1.30;99.90;;;;;;5093914;28;20532;-61
2023/01/18 06:12:40;;;;;;;13.70;7.63;;;-1.30;99.90;;;;;;5069119;28;20423;-61
2023/01/18 06:15:06;;;;;;;13.48;7.82;;;-1.30;99.90;;;;;;5090438;28;20016;-61
2023/01/18 06:17:33;;;;;;;16.25;8.77;;;-1.30;99.90;;;;;;5090333;28;20020;-61
2023/01/18 06:19:58;;;;;;;17.80;9.15;;;-1.40;99.90;;;;;;5087515;28;20443;-61
2023/01/18 06:22:24;;;;;;;15.38;9.00;;;-1.40;99.90;;;;;;5092181;28;20519;-61
2023/01/18 06:24:50;;;;;;;18.42;9.88;;;-1.40;99.90;;;;;;5090769;28;20390;-61
2023/01/18 06:27:15;;;;;;;14.88;9.13;;;-1.40;99.90;;;;;;5071997;28;20035;-61
2023/01/18 06:29:41;;;;;;;17.85;9.10;;;-1.50;99.90;;;;;;5090109;28;20028;-61
2023/01/18 06:32:06;;;;;;;19.00;8.98;;;-1.50;99.90;;;;;;5088936;28;20073;-61
2023/01/18 06:34:32;;;;;;;18.90;9.55;;;-1.50;99.90;;;;;;5095308;28;20457;-61
2023/01/18 06:36:58;;;;;;;15.70;9.70;;;-1.60;99.90;;;;;;5091097;28;20460;-61
2023/01/18 06:39:23;;;;;;;18.50;9.80;;;-1.60;99.90;;;;;;5099314;28;20026;-61
2023/01/18 06:41:49;;;;;;;18.48;10.00;;;-1.60;99.90;;;;;;5080145;28;20016;-61
2023/01/18 06:44:15;;;;;;;14.98;8.32;;;-1.60;99.90;;;;;;5091052;28;20036;-61
2023/01/18 06:46:42;;;;;;;13.27;8.68;;;-1.60;99.90;;;;;;5091031;28;20031;-61
2023/01/18 06:49:08;;;;;;;11.77;7.93;;;-1.60;99.90;;;;;;5093860;28;20028;-61
2023/01/18 06:51:34;;;;;;;16.70;9.23;;;-1.50;99.90;;;;;;5103324;27;20566;-61
2023/01/18 06:53:59;;;;;;;16.23;9.48;;;-1.50;99.90;;;;;;5104403;28;20028;-60
2023/01/18 06:56:25;;;;;;;16.17;9.15;;;-1.50;99.90;;;;;;5108005;27;20031;-61
2023/01/18 06:58:51;;;;;;;16.48;9.45;;;-1.50;99.90;;;;;;5100204;28;20035;-61
2023/01/18 07:01:17;;;;;;;14.90;9.25;;;-1.50;99.90;;;;;;5109516;28;20464;-61
2023/01/18 07:03:42;;;;;;;19.15;9.98;;;-1.50;99.90;;;;;;5091403;28;20019;-61
2023/01/18 07:06:08;;;;;;;13.80;9.02;;;-1.50;99.90;;;;;;5110516;27;20081;-61
2023/01/18 07:08:34;;;;;;;18.88;9.77;;;-1.50;99.90;;;;;;5111975;28;20164;-61
2023/01/18 07:11:07;;;;;;;14.60;8.73;;;-1.50;99.90;;;;;;5103241;28;20043;-60
2023/01/18 07:13:33;;;;;;;16.30;9.43;;;-1.40;99.90;;;;;;5099784;28;20031;-61
2023/01/18 07:16:00;;;;;;;16.52;9.75;;;-1.40;99.90;;;;;;5069984;28;20035;-61
2023/01/18 07:18:28;;;;;;;16.85;9.55;;;-1.40;99.90;;;;;;5107418;28;20107;-62
2023/01/18 07:21:02;;;;;;;27.27;11.55;;;-1.40;99.90;;;;;;5098603;28;20495;-63
2023/01/18 07:23:29;;;;;;;15.10;8.95;;;-1.40;99.90;;;;;;5096954;28;20477;-63
2023/01/18 07:26:08;;;;;;;14.85;8.90;;;-1.40;99.90;;;;;;5097191;28;20027;-62
2023/01/18 07:28:35;;;;;;;16.88;9.65;;;-1.40;99.90;;;;;;5098362;28;20032;-63
2023/01/18 07:31:01;;;;;;;16.40;9.40;;;-1.40;99.90;;;;;;5104252;28;20035;-62
2023/01/18 07:33:27;;;;;;;18.77;9.15;;;-1.40;99.90;;;;;;5094594;28;20020;-63
2023/01/18 07:35:54;;;;;;;19.02;9.80;;;-1.40;99.90;;;;;;5113369;27;20392;-63
2023/01/18 07:38:21;;;;;;;18.77;9.63;;;-1.40;99.90;;;;;;5101063;28;20028;-62
2023/01/18 07:40:47;;;;;;;17.92;10.13;;;-1.40;99.90;;;;;;5107995;28;20064;-62
2023/01/18 07:43:14;;;;;;;19.52;9.95;;;-1.40;99.90;;;;;;5107486;28;20023;-62
2023/01/18 07:45:40;;;;;;;18.73;10.13;;;-1.40;99.90;;;;;;5113368;28;20019;-62
2023/01/18 07:48:06;;;;;;;19.13;9.60;;;-1.40;99.90;;;;;;5094599;28;20465;-63
2023/01/18 07:50:34;;;;;;;16.10;9.45;;;-1.40;99.90;;;;;;5107776;28;20034;-62
2023/01/18 07:53:05;;;;;;;17.20;9.45;;;-1.30;99.90;;;;;;5092433;28;20106;-62
2023/01/18 07:55:32;;;;;;;18.58;10.32;;;-1.30;99.90;;;;;;5098367;28;20027;-62
2023/01/18 07:58:01;;;;;;;16.05;10.13;;;-1.30;99.90;;;;;;5113623;28;20024;-63
2023/01/18 08:00:27;;;;;;;20.58;11.75;;;-1.40;99.90;;;;;;5101442;28;20028;-62
2023/01/18 08:02:53;;;;;;;15.75;10.30;;;-1.40;99.90;;;;;;5098596;28;20039;-63
2023/01/18 08:05:22;;;;;;;21.42;11.88;;;-1.40;99.90;;;;;;5111219;28;20050;-62
2023/01/18 08:07:49;;;;;;;18.55;11.85;;;-1.40;99.90;;;;;;5100690;28;20055;-63
2023/01/18 08:10:16;;;;;;;20.15;10.40;;;-1.50;99.90;;;;;;5104967;28;20055;-63
2023/01/18 08:12:41;;;;;;;19.35;11.82;;;-1.40;99.90;;;;;;5056971;28;20048;-63
2023/01/18 08:15:07;;;;;;;18.75;11.15;;;-1.40;99.90;;;;;;5066014;28;20020;-63
2023/01/18 08:17:34;;;;;;;18.13;10.18;;;-1.40;99.90;;;;;;5053873;28;20071;-63
2023/01/18 08:19:59;;;;;;;19.10;10.90;;;-1.40;99.90;;;;;;5069714;28;20078;-62
2023/01/18 08:22:25;;;;;;;17.70;10.85;;;-1.30;99.90;;;;;;5067855;28;20020;-63
2023/01/18 08:24:51;;;;;;;18.50;11.32;;;-1.20;99.90;;;;;;5065031;28;20047;-62
2023/01/18 08:27:16;;;;;;;20.50;12.57;;;-1.20;99.90;;;;;;5070881;28;20016;-63
2023/01/18 08:29:42;;;;;;;23.25;12.13;;;-1.20;99.90;;;;;;5065575;28;20395;-63
2023/01/18 08:32:07;;;;;;;22.17;11.80;;;-1.10;99.90;;;;;;5059585;28;20095;-63
2023/01/18 08:34:33;;;;;;;21.92;10.95;;;-1.10;99.90;;;;;;5055802;28;20025;-63
2023/01/18 08:36:58;;;;;;;19.58;11.88;;;-1.10;99.90;;;;;;5072096;28;20019;-63
2023/01/18 08:39:24;;;;;;;20.00;11.07;;;-1.00;99.90;;;;;;5070614;28;20386;-62
2023/01/18 08:41:49;;;;;;;19.90;11.55;;;-0.90;99.90;;;;;;5059588;28;20028;-63
2023/01/18 08:44:15;;;;;;;27.38;12.60;;;-0.90;99.90;;;;;;5052450;28;20166;-63
2023/01/18 08:46:41;;;;;;;20.20;11.27;;;-0.80;99.90;;;;;;5052484;28;20029;-62
2023/01/18 08:49:06;;;;;;;22.50;11.95;;;-0.80;99.90;;;;;;5058057;28;20063;-63
2023/01/18 08:51:32;;;;;;;16.50;10.38;;;-0.70;99.90;;;;;;5058345;28;20021;-63
2023/01/18 08:53:58;;;;;;;19.60;11.10;;;-0.70;99.90;;;;;;5053866;28;20063;-63
2023/01/18 08:56:24;;;;;;;21.05;10.85;;;-0.60;99.90;;;;;;5065729;28;20063;-63
2023/01/18 08:58:50;;;;;;;17.08;9.60;;;-0.50;99.90;;;;;;5060607;28;20010;-63
2023/01/18 09:01:17;;;;;;;19.00;10.60;;;-0.50;99.90;;;;;;5050427;28;20155;-63
2023/01/18 09:03:42;;;;;;;22.65;11.65;;;-0.40;99.90;;;;;;5050276;28;20060;-63
2023/01/18 09:06:08;;;;;;;16.20;10.30;;;-0.30;99.90;;;;;;5065422;28;20134;-63
2023/01/18 09:08:34;;;;;;;18.45;10.43;;;-0.30;99.90;;;;;;5067882;28;20067;-63
2023/01/18 09:11:02;;;;;;;16.90;11.30;;;-0.20;99.90;;;;;;5072406;28;20504;-63
2023/01/18 09:13:27;;;;;;;18.48;10.88;;;-0.10;99.90;;;;;;5106715;28;20024;-63
2023/01/18 09:16:05;;;;;;;17.20;11.02;;;-0.10;99.90;;;;;;5110353;28;20115;-63
2023/01/18 09:18:30;;;;;;;18.48;11.05;;;0.00;99.90;;;;;;5108448;28;20088;-63
2023/01/18 09:20:57;;;;;;;21.67;10.82;;;0.00;99.90;;;;;;5106660;28;20472;-63
2023/01/18 09:23:23;;;;;;;16.95;10.88;;;0.10;99.90;;;;;;5106461;28;20057;-63
2023/01/18 09:26:00;;;;;;;20.80;11.43;;;0.20;99.90;;;;;;5108366;28;20034;-63
2023/01/18 09:28:26;;;;;;;16.98;11.25;;;0.20;99.90;;;;;;5088310;28;20020;-63
2023/01/18 09:30:52;;;;;;;17.30;9.68;;;0.30;99.90;;;;;;5108377;28;20030;-61
2023/01/18 09:33:18;;;;;;;19.00;10.27;;;0.40;99.90;;;;;;5109024;28;20508;-61
2023/01/18 09:35:43;;;;;;;16.33;10.30;;;0.40;99.90;;;;;;5092185;28;20043;-61
2023/01/18 09:38:11;;;;;;;20.58;10.88;;;0.50;99.90;;;;;;5089795;28;20043;-61
2023/01/18 09:40:42;;;;;;;16.35;9.57;;;0.60;99.90;;;;;;5091452;28;20095;-61
2023/01/18 09:43:44;;;;;;;19.50;10.52;;;0.80;99.90;;;;;;5109197;28;20024;-61
2023/01/18 09:46:18;;;;;;;17.05;10.05;;;0.90;99.90;;;;;;5097791;27;20044;-61
2023/01/18 09:48:48;;;;;;;16.15;9.75;;;1.00;99.90;;;;;;5110500;28;20051;-61
2023/01/18 09:51:30;;;;;;;16.23;10.10;;;1.10;99.90;;;;;;5103413;28;20103;-62
2023/01/18 09:54:08;;;;;;;17.10;9.18;;;1.20;99.90;;;;;;5085509;28;20123;-62
2023/01/18 09:56:54;;;;;;;15.45;9.20;;;1.30;99.90;;;;;;5104720;28;20020;-62
2023/01/18 09:59:22;;;;;;;19.42;9.82;;;1.50;99.90;;;;;;5107471;28;20023;-61
2023/01/18 10:01:49;;;;;;;22.23;11.80;;;1.60;99.90;;;;;;5109120;28;20492;-61
2023/01/18 10:04:31;;;;;;;14.43;9.00;;;1.70;99.90;;;;;;5108550;28;20140;-62
2023/01/18 10:07:03;;;;;;;16.70;8.43;;;1.90;99.90;;;;;;5087788;28;20027;-62
2023/01/18 10:09:41;;;;;;;15.35;8.93;;;2.00;99.90;;;;;;5107427;28;20019;-62
2023/01/18 10:12:31;;;;;;;14.75;8.63;;;2.50;99.90;;;;;;5108224;28;20046;-62
2023/01/18 10:15:06;;;;;;;13.25;7.53;;;2.60;99.90;;;;;;5117571;28;20019;-62
2023/01/18 10:17:37;;;;;;;14.30;7.95;;;2.70;99.90;;;;;;5109929;28;20043;-61
2023/01/18 10:20:16;;;;;;;11.38;7.47;;;2.90;99.90;;;;;;5089636;28;20027;-62
2023/01/18 10:22:54;;;;;;;13.98;7.75;;;3.30;99.90;;;;;;5091884;28;20481;-61
2023/01/18 10:25:25;;;;;;;12.50;8.35;;;3.90;99.90;;;;;;5107313;28;20064;-62
2023/01/18 10:27:57;;;;;;;11.32;7.95;;;4.50;99.90;;;;;;5104149;27;20019;-62
2023/01/18 10:30:31;;;;;;;12.32;6.88;;;5.10;99.90;;;;;;5107777;27;20019;-62
2023/01/18 10:33:11;;;;;;;15.18;7.35;;;5.30;99.90;;;;;;5096231;28;20034;-62
2023/01/18 10:35:44;;;;;;;12.95;7.07;;;5.40;99.90;;;;;;5110697;27;20035;-62
2023/01/18 10:38:12;;;;;;;11.20;6.68;;;5.40;99.90;;;;;;5113882;28;20023;-62
2023/01/18 10:40:39;;;;;;;11.98;7.18;;;5.60;99.90;;;;;;5091950;27;20027;-62
2023/01/18 10:43:14;;;;;;;10.05;6.50;;;6.20;99.50;;;;;;5092370;28;20027;-62
2023/01/18 10:45:40;;;;;;;10.38;6.75;;;6.60;98.10;;;;;;5099710;28;20012;-62
2023/01/18 10:48:24;;;;;;;11.38;6.60;;;6.80;97.20;;;;;;5107204;28;20030;-62
2023/01/18 10:50:52;;;;;;;13.35;6.30;;;6.80;95.60;;;;;;5105113;27;20073;-62
2023/01/18 10:53:38;;;;;;;11.30;6.65;;;6.70;94.50;;;;;;5076011;28;20020;-62
2023/01/18 10:56:12;;;;;;;11.20;6.80;;;7.00;94.00;;;;;;5098486;28;20048;-62
2023/01/18 10:58:49;;;;;;;10.45;6.00;;;7.10;93.50;;;;;;5100621;28;20012;-62
2023/01/18 11:01:28;;;;;;;11.70;6.72;;;7.30;93.20;;;;;;5094268;28;20028;-62
2023/01/18 11:04:04;;;;;;;9.88;6.72;;;7.70;92.60;;;;;;5095256;28;20036;-62
2023/01/18 11:06:43;;;;;;;11.13;6.47;;;8.20;91.80;;;;;;5103617;28;20024;-62
2023/01/18 11:09:31;;;;;;;11.82;6.03;;;8.90;90.00;;;;;;5093399;28;20032;-62
2023/01/18 11:12:51;;;;;;;10.43;6.05;;;9.60;86.80;;;;;;5109108;28;20450;-62
2023/01/18 11:15:12;;;;;;;9.57;7.13;;;9.30;82.10;;;;;;5111221;28;20039;-62
2023/01/18 11:17:40;;;;;;;11.13;6.55;;;8.80;81.50;;;;;;5113148;28;20635;-62
2023/01/18 11:20:15;;;;;;;9.85;5.95;;;8.30;82.80;;;;;;5112466;28;20019;-62
2023/01/18 11:22:59;;;;;;;10.80;5.57;;;8.00;82.80;;;;;;5104720;28;20504;-62
2023/01/18 11:25:33;;;;;;;10.15;6.85;;;8.00;83.40;;;;;;5110755;28;20090;-62
2023/01/18 11:28:08;;;;;;;10.40;6.05;;;8.20;83.30;;;;;;5090694;28;20080;-62
2023/01/18 11:30:34;;;;;;;10.52;6.40;;;8.50;82.60;;;;;;5111378;28;20024;-62
2023/01/18 11:33:00;;;;;;;10.20;6.38;;;9.00;80.70;;;;;;5096977;28;20110;-62
2023/01/18 11:35:36;;;;;;;8.43;5.43;;;9.60;78.60;;;;;;5100043;28;20583;-62
2023/01/18 11:38:05;;;;;;;7.93;5.88;;;9.90;77.20;;;;;;5099416;28;20023;-63
2023/01/18 11:40:32;;;;;;;7.72;5.50;;;10.50;75.30;;;;;;5086877;28;20012;-62
2023/01/18 11:43:13;;;;;;;8.70;5.47;;;11.20;74.20;;;;;;5075612;28;20530;-62
2023/01/18 11:45:58;;;;;;;7.18;4.80;;;12.00;71.20;;;;;;5108871;28;20047;-62
2023/01/18 11:48:37;;;;;;;10.48;5.32;;;12.50;68.70;;;;;;5100028;28;20028;-63
2023/01/18 11:51:10;;;;;;;6.97;4.93;;;12.90;67.40;;;;;;5100323;28;20028;-63
2023/01/18 11:54:03;;;;;;;7.25;4.78;;;13.30;65.10;;;;;;5092485;28;20028;-63
2023/01/18 11:56:41;;;;;;;8.50;4.72;;;13.40;64.10;;;;;;5110022;28;20028;-63
2023/01/18 11:59:21;;;;;;;5.40;3.80;;;14.20;61.30;;;;;;5107093;28;20032;-63
2023/01/18 12:02:29;;;;;;;6.60;4.00;;;15.00;60.50;;;;;;5102808;28;20065;-63
2023/01/18 12:05:14;;;;;;;6.13;3.80;;;15.70;57.50;;;;;;5101608;28;20119;-63
2023/01/18 12:08:11;;;;;;;6.82;3.78;;;17.00;56.20;;;;;;5104974;28;20024;-63
2023/01/18 12:10:48;;;;;;;5.93;3.55;;;18.30;53.10;;;;;;5075305;28;20564;-63
2023/01/18 12:13:56;;;;;;;9.05;4.15;;;19.20;52.10;;;;;;5107111;28;20046;-63
2023/01/18 12:16:42;;;;;;;5.13;3.30;;;20.00;49.00;;;;;;5024694;28;20041;-63
2023/01/18 12:19:30;;;;;;;6.00;3.85;;;20.30;46.50;;;;;;5105137;28;20036;-63
2023/01/18 12:22:04;;;;;;;5.30;3.15;;;20.30;45.10;;;;;;5109976;28;20028;-63
2023/01/18 12:24:36;;;;;;;4.40;3.03;;;20.60;45.80;;;;;;5110304;28;20028;-63
2023/01/18 12:27:22;;;;;;;5.93;3.60;;;20.90;45.30;;;;;;5107266;28;20027;-63
2023/01/18 12:29:51;;;;;;;4.25;3.15;;;21.20;44.10;;;;;;5109591;28;20737;-64
2023/01/18 12:32:44;;;;;;;6.57;3.47;;;21.60;43.50;;;;;;5105239;28;20023;-64
2023/01/18 12:35:15;;;;;;;3.90;3.13;;;22.30;43.20;;;;;;5108853;28;20054;-64
2023/01/18 12:38:10;;;;;;;4.07;2.60;;;22.80;42.40;;;;;;5106160;28;20096;-64
2023/01/18 12:40:59;;;;;;;6.55;3.40;;;23.60;42.30;;;;;;5106603;28;20028;-64
2023/01/18 12:43:53;;;;;;;5.90;3.30;;;23.90;40.20;;;;;;5107575;28;20469;-64
2023/01/18 12:46:39;;;;;;;5.75;3.40;;;23.00;39.50;;;;;;5107915;28;20496;-64
2023/01/18 12:49:17;;;;;;;5.22;3.33;;;22.60;39.80;;;;;;5094206;28;20022;-64
2023/01/18 12:51:48;;;;;;;4.75;2.95;;;22.10;40.10;;;;;;5103960;28;20085;-64
2023/01/18 12:54:26;;;;;;;5.47;3.70;;;21.90;40.60;;;;;;5107494;28;20031;-64
2023/01/18 12:56:55;;;;;;;9.93;3.85;;;21.40;40.60;;;;;;5105108;28;20043;-64
2023/01/18 12:59:32;;;;;;;6.88;3.45;;;21.00;40.10;;;;;;5092844;28;20538;-64
2023/01/18 13:02:21;;;;;;;5.30;3.55;;;20.90;41.60;;;;;;5092325;28;20038;-64
2023/01/18 13:04:51;;;;;;;;;;;21.10;41.30;;;;;;5103361;28;20016;-64
2023/01/18 13:07:21;;;;;;;5.32;3.45;;;20.70;41.00;;;;;;5091942;28;19908;-65
2023/01/18 13:09:49;;;;;;;5.70;3.10;;;20.20;41.50;;;;;;5092502;28;20018;-65
2023/01/18 13:12:15;;;;;;;5.03;3.10;;;20.10;42.20;;;;;;5091766;28;20040;-64
2023/01/18 13:14:56;;;;;;;4.75;3.10;;;19.90;41.80;;;;;;5103759;28;20042;-64
2023/01/18 13:17:35;;;;;;;4.38;2.95;;;18.40;43.20;;;;;;5092741;28;20145;-64
2023/01/18 13:20:24;;;;;;;4.78;3.00;;;17.30;44.90;;;;;;5105895;28;20016;-64
2023/01/18 13:23:44;;;;;;;5.38;2.83;;;17.60;45.10;;;;;;5087192;28;20043;-64
2023/01/18 13:26:20;;;;;;;3.22;2.60;;;18.40;44.80;;;;;;5029548;28;20082;-65
2023/01/18 13:28:46;;;;;;;3.75;2.45;;;19.60;43.50;;;;;;5086366;28;20103;-65
2023/01/18 13:31:12;;;;;;;4.93;3.13;;;20.00;42.40;;;;;;5092499;28;20119;-64
2023/01/18 13:33:41;;;;;;;3.58;2.40;;;18.40;42.30;;;;;;5100675;28;20023;-64
2023/01/18 13:36:13;;;;;;;4.90;2.92;;;17.90;44.70;;;;;;5098501;28;20783;-64